sensor_id;sensor_type;location;lat;lon;timestamp;temperature;humidity
21811;DHT22;11067;48.788;9.208;2022-08-18T00:01:20;19.80;99.90
21811;DHT22;11067;48.788;9.208;2022-08-18T00:03:48;19.90;99.90
21811;DHT22;11067;48.788;9.208;2022-08-18T00:06:14;19.90;99.90
21811;DHT22;11067;48.788;9.208;2022-08-18T00:08:40;19.90;99.90
21811;DHT22;11067;48.788;9.208;2022-08-18T00:11:05;19.80;99.90
21811;DHT22;11067;48.788;9.208;2022-08-18T00:13:31;19.80;99.90
21811;DHT22;11067;48.788;9.208;2022-08-18T00:15:57;19.70;99.90
21811;DHT22;11067;48.788;9.208;2022-08-18T00:18:22;19.80;99.90
21811;DHT22;11067;48.788;9.208;2022-08-18T00:20:48;19.80;99.90
21811;DHT22;11067;48.788;9.208;2022-08-18T00:23:14;19.70;99.90
21811;DHT22;11067;48.788;9.208;2022-08-18T00:25:39;19.60;99.90
21811;DHT22;11067;48.788;9.208;2022-08-18T00:28:08;19.50;99.90
21811;DHT22;11067;48.788;9.208;2022-08-18T00:30:33;19.50;99.90
21811;DHT22;11067;48.788;9.208;2022-08-18T00:32:59;19.50;99.90
21811;DHT22;11067;48.788;9.208;2022-08-18T00:35:36;19.40;99.90
21811;DHT22;11067;48.788;9.208;2022-08-18T00:38:05;19.40;99.90
21811;DHT22;11067;48.788;9.208;2022-08-18T00:40:39;19.40;99.90
21811;DHT22;11067;48.788;9.208;2022-08-18T00:43:10;19.50;99.90
21811;DHT22;11067;48.788;9.208;2022-08-18T00:45:38;19.50;99.90
21811;DHT22;11067;48.788;9.208;2022-08-18T00:48:05;19.50;99.90
21811;DHT22;11067;48.788;9.208;2022-08-18T00:50:58;19.50;99.90
21811;DHT22;11067;48.788;9.208;2022-08-18T00:53:31;19.50;99.90
21811;DHT22;11067;48.788;9.208;2022-08-18T00:56:02;19.50;99.90
21811;DHT22;11067;48.788;9.208;2022-08-18T00:58:33;19.50;99.90
21811;DHT22;11067;48.788;9.208;2022-08-18T01:01:03;19.50;99.90
21811;DHT22;11067;48.788;9.208;2022-08-18T01:03:30;19.40;99.90
21811;DHT22;11067;48.788;9.208;2022-08-18T01:06:08;19.30;99.90
21811;DHT22;11067;48.788;9.208;2022-08-18T01:08:36;19.20;99.90
21811;DHT22;11067;48.788;9.208;2022-08-18T01:11:04;19.20;99.90
21811;DHT22;11067;48.788;9.208;2022-08-18T01:13:31;19.20;99.90
21811;DHT22;11067;48.788;9.208;2022-08-18T01:15:57;19.20;99.90
21811;DHT22;11067;48.788;9.208;2022-08-18T01:18:23;19.20;99.90
21811;DHT22;11067;48.788;9.208;2022-08-18T01:21:21;19.20;99.90
21811;DHT22;11067;48.788;9.208;2022-08-18T01:24:09;19.20;99.90
21811;DHT22;11067;48.788;9.208;2022-08-18T01:26:37;19.10;99.90
21811;DHT22;11067;48.788;9.208;2022-08-18T01:29:06;19.10;99.90
21811;DHT22;11067;48.788;9.208;2022-08-18T01:31:40;19.10;99.90
21811;DHT22;11067;48.788;9.208;2022-08-18T01:34:07;19.10;99.90
21811;DHT22;11067;48.788;9.208;2022-08-18T01:36:34;19.20;99.90
21811;DHT22;11067;48.788;9.208;2022-08-18T01:39:03;19.20;99.90
21811;DHT22;11067;48.788;9.208;2022-08-18T01:41:30;19.20;99.90
21811;DHT22;11067;48.788;9.208;2022-08-18T01:43:58;19.20;99.90
21811;DHT22;11067;48.788;9.208;2022-08-18T01:46:24;19.20;99.90
21811;DHT22;11067;48.788;9.208;2022-08-18T01:48:50;19.30;99.90
21811;DHT22;11067;48.788;9.208;2022-08-18T01:51:16;19.20;99.90
21811;DHT22;11067;48.788;9.208;2022-08-18T01:53:44;19.20;99.90
21811;DHT22;11067;48.788;9.208;2022-08-18T01:56:10;19.20;99.90
21811;DHT22;11067;48.788;9.208;2022-08-18T01:58:37;19.20;99.90
21811;DHT22;11067;48.788;9.208;2022-08-18T02:01:03;19.20;99.90
21811;DHT22;11067;48.788;9.208;2022-08-18T02:03:32;19.20;99.90
21811;DHT22;11067;48.788;9.208;2022-08-18T02:06:02;19.20;99.90
21811;DHT22;11067;48.788;9.208;2022-08-18T02:08:28;19.20;99.90
21811;DHT22;11067;48.788;9.208;2022-08-18T02:10:55;19.20;99.90
21811;DHT22;11067;48.788;9.208;2022-08-18T02:13:22;19.10;99.90
21811;DHT22;11067;48.788;9.208;2022-08-18T02:15:48;19.10;99.90
21811;DHT22;11067;48.788;9.208;2022-08-18T02:18:19;19.20;99.90
21811;DHT22;11067;48.788;9.208;2022-08-18T02:20:46;19.20;99.90
21811;DHT22;11067;48.788;9.208;2022-08-18T02:23:12;19.20;99.90
21811;DHT22;11067;48.788;9.208;2022-08-18T02:25:38;19.20;99.90
21811;DHT22;11067;48.788;9.208;2022-08-18T02:28:04;19.20;99.90
21811;DHT22;11067;48.788;9.208;2022-08-18T02:30:30;19.20;99.90
21811;DHT22;11067;48.788;9.208;2022-08-18T02:32:59;19.30;99.90
21811;DHT22;11067;48.788;9.208;2022-08-18T02:35:26;19.40;99.90
21811;DHT22;11067;48.788;9.208;2022-08-18T02:37:51;19.30;99.90
21811;DHT22;11067;48.788;9.208;2022-08-18T02:40:17;19.30;99.90
21811;DHT22;11067;48.788;9.208;2022-08-18T02:42:44;19.30;99.90
21811;DHT22;11067;48.788;9.208;2022-08-18T02:45:10;19.40;99.90
21811;DHT22;11067;48.788;9.208;2022-08-18T02:47:37;19.50;99.90
21811;DHT22;11067;48.788;9.208;2022-08-18T02:50:03;19.40;99.90
21811;DHT22;11067;48.788;9.208;2022-08-18T02:52:29;19.40;99.90
21811;DHT22;11067;48.788;9.208;2022-08-18T02:54:58;19.50;99.90
21811;DHT22;11067;48.788;9.208;2022-08-18T02:57:28;19.40;99.90
21811;DHT22;11067;48.788;9.208;2022-08-18T02:59:54;19.40;99.90
21811;DHT22;11067;48.788;9.208;2022-08-18T03:02:19;19.50;99.90
21811;DHT22;11067;48.788;9.208;2022-08-18T03:04:45;19.50;99.90
21811;DHT22;11067;48.788;9.208;2022-08-18T03:07:11;19.50;99.90
21811;DHT22;11067;48.788;9.208;2022-08-18T03:09:37;19.50;99.90
21811;DHT22;11067;48.788;9.208;2022-08-18T03:12:03;19.40;99.90
21811;DHT22;11067;48.788;9.208;2022-08-18T03:14:29;19.40;99.90
21811;DHT22;11067;48.788;9.208;2022-08-18T03:16:54;19.40;99.90
21811;DHT22;11067;48.788;9.208;2022-08-18T03:19:24;19.40;99.90
21811;DHT22;11067;48.788;9.208;2022-08-18T03:21:50;19.50;99.90
21811;DHT22;11067;48.788;9.208;2022-08-18T03:24:17;19.50;99.90
21811;DHT22;11067;48.788;9.208;2022-08-18T03:26:44;19.50;99.90
21811;DHT22;11067;48.788;9.208;2022-08-18T03:29:10;19.50;99.90
21811;DHT22;11067;48.788;9.208;2022-08-18T03:31:37;19.50;99.90
21811;DHT22;11067;48.788;9.208;2022-08-18T03:34:05;19.50;99.90
21811;DHT22;11067;48.788;9.208;2022-08-18T03:36:33;19.50;99.90
21811;DHT22;11067;48.788;9.208;2022-08-18T03:39:05;19.40;99.90
21811;DHT22;11067;48.788;9.208;2022-08-18T03:41:31;19.40;99.90
21811;DHT22;11067;48.788;9.208;2022-08-18T03:43:56;19.30;99.90
21811;DHT22;11067;48.788;9.208;2022-08-18T03:46:22;19.30;99.90
21811;DHT22;11067;48.788;9.208;2022-08-18T03:48:49;19.40;99.90
21811;DHT22;11067;48.788;9.208;2022-08-18T03:51:20;19.40;99.90
21811;DHT22;11067;48.788;9.208;2022-08-18T03:53:47;19.30;99.90
21811;DHT22;11067;48.788;9.208;2022-08-18T03:56:18;19.30;99.90
21811;DHT22;11067;48.788;9.208;2022-08-18T03:58:50;19.30;99.90
21811;DHT22;11067;48.788;9.208;2022-08-18T04:01:18;19.30;99.90
21811;DHT22;11067;48.788;9.208;2022-08-18T04:03:50;19.30;99.90
21811;DHT22;11067;48.788;9.208;2022-08-18T04:06:22;19.20;99.90
21811;DHT22;11067;48.788;9.208;2022-08-18T04:08:53;19.20;99.90
21811;DHT22;11067;48.788;9.208;2022-08-18T04:11:19;19.30;99.90
21811;DHT22;11067;48.788;9.208;2022-08-18T04:13:46;19.20;99.90
21811;DHT22;11067;48.788;9.208;2022-08-18T04:16:11;19.20;99.90
21811;DHT22;11067;48.788;9.208;2022-08-18T04:18:37;19.20;99.90
21811;DHT22;11067;48.788;9.208;2022-08-18T04:21:10;19.20;99.90
21811;DHT22;11067;48.788;9.208;2022-08-18T04:23:38;19.20;99.90
21811;DHT22;11067;48.788;9.208;2022-08-18T04:26:05;19.20;99.90
21811;DHT22;11067;48.788;9.208;2022-08-18T04:28:32;19.30;99.90
21811;DHT22;11067;48.788;9.208;2022-08-18T04:30:58;19.30;99.90
21811;DHT22;11067;48.788;9.208;2022-08-18T04:33:24;19.30;99.90
21811;DHT22;11067;48.788;9.208;2022-08-18T04:35:50;19.30;99.90
21811;DHT22;11067;48.788;9.208;2022-08-18T04:38:16;19.30;99.90
21811;DHT22;11067;48.788;9.208;2022-08-18T04:40:42;19.20;99.90
21811;DHT22;11067;48.788;9.208;2022-08-18T04:43:08;19.30;99.90
21811;DHT22;11067;48.788;9.208;2022-08-18T04:45:40;19.30;99.90
21811;DHT22;11067;48.788;9.208;2022-08-18T04:48:06;19.30;99.90
21811;DHT22;11067;48.788;9.208;2022-08-18T04:50:32;19.30;99.90
21811;DHT22;11067;48.788;9.208;2022-08-18T04:52:57;19.30;99.90
21811;DHT22;11067;48.788;9.208;2022-08-18T04:55:49;19.40;99.90
21811;DHT22;11067;48.788;9.208;2022-08-18T04:58:16;19.40;99.90
21811;DHT22;11067;48.788;9.208;2022-08-18T05:00:44;19.40;99.90
21811;DHT22;11067;48.788;9.208;2022-08-18T05:03:10;19.50;99.90
21811;DHT22;11067;48.788;9.208;2022-08-18T05:05:36;19.70;99.90
21811;DHT22;11067;48.788;9.208;2022-08-18T05:08:02;19.90;99.90
21811;DHT22;11067;48.788;9.208;2022-08-18T05:10:28;20.20;99.90
21811;DHT22;11067;48.788;9.208;2022-08-18T05:12:53;20.50;99.90
21811;DHT22;11067;48.788;9.208;2022-08-18T05:15:19;20.70;99.90
21811;DHT22;11067;48.788;9.208;2022-08-18T05:17:45;20.90;99.90
21811;DHT22;11067;48.788;9.208;2022-08-18T05:20:11;21.10;99.90
21811;DHT22;11067;48.788;9.208;2022-08-18T05:22:40;20.70;99.90
21811;DHT22;11067;48.788;9.208;2022-08-18T05:25:08;20.50;99.90
21811;DHT22;11067;48.788;9.208;2022-08-18T05:27:36;20.60;99.90
21811;DHT22;11067;48.788;9.208;2022-08-18T05:30:04;20.70;99.90
21811;DHT22;11067;48.788;9.208;2022-08-18T05:32:38;20.90;99.90
21811;DHT22;11067;48.788;9.208;2022-08-18T05:35:14;21.00;99.90
21811;DHT22;11067;48.788;9.208;2022-08-18T05:40:33;21.20;99.90
21811;DHT22;11067;48.788;9.208;2022-08-18T05:42:59;22.00;99.90
21811;DHT22;11067;48.788;9.208;2022-08-18T05:45:25;22.60;99.90
21811;DHT22;11067;48.788;9.208;2022-08-18T05:47:56;22.20;99.90
21811;DHT22;11067;48.788;9.208;2022-08-18T05:50:24;22.20;99.90
21811;DHT22;11067;48.788;9.208;2022-08-18T05:55:39;21.80;99.90
21811;DHT22;11067;48.788;9.208;2022-08-18T05:58:32;21.70;99.90
21811;DHT22;11067;48.788;9.208;2022-08-18T06:01:05;21.80;99.90
21811;DHT22;11067;48.788;9.208;2022-08-18T06:03:50;21.80;99.90
21811;DHT22;11067;48.788;9.208;2022-08-18T06:06:22;21.60;99.90
21811;DHT22;11067;48.788;9.208;2022-08-18T06:09:00;21.50;99.90
21811;DHT22;11067;48.788;9.208;2022-08-18T06:11:27;21.40;99.90
21811;DHT22;11067;48.788;9.208;2022-08-18T06:13:53;21.80;99.90
21811;DHT22;11067;48.788;9.208;2022-08-18T06:19:33;22.20;99.90
21811;DHT22;11067;48.788;9.208;2022-08-18T06:28:07;21.60;99.90
21811;DHT22;11067;48.788;9.208;2022-08-18T06:30:52;21.80;99.90
21811;DHT22;11067;48.788;9.208;2022-08-18T06:36:43;21.90;99.90
21811;DHT22;11067;48.788;9.208;2022-08-18T06:39:28;21.60;99.90
21811;DHT22;11067;48.788;9.208;2022-08-18T06:41:56;21.50;99.90
21811;DHT22;11067;48.788;9.208;2022-08-18T06:44:52;21.60;99.90
21811;DHT22;11067;48.788;9.208;2022-08-18T06:52:57;21.50;99.90
21811;DHT22;11067;48.788;9.208;2022-08-18T06:55:35;21.50;99.90
21811;DHT22;11067;48.788;9.208;2022-08-18T06:58:04;21.40;99.90
21811;DHT22;11067;48.788;9.208;2022-08-18T07:00:33;21.50;99.90
21811;DHT22;11067;48.788;9.208;2022-08-18T07:05:37;21.60;99.90
21811;DHT22;11067;48.788;9.208;2022-08-18T07:11:30;21.70;99.90
21811;DHT22;11067;48.788;9.208;2022-08-18T07:14:14;21.50;99.90
21811;DHT22;11067;48.788;9.208;2022-08-18T07:16:45;21.60;99.90
21811;DHT22;11067;48.788;9.208;2022-08-18T07:19:19;21.70;99.90
21811;DHT22;11067;48.788;9.208;2022-08-18T07:21:59;21.70;99.90
21811;DHT22;11067;48.788;9.208;2022-08-18T07:24:29;21.70;99.90
21811;DHT22;11067;48.788;9.208;2022-08-18T07:27:11;21.60;99.90
21811;DHT22;11067;48.788;9.208;2022-08-18T07:30:03;21.70;99.90
21811;DHT22;11067;48.788;9.208;2022-08-18T07:32:36;21.90;99.90
21811;DHT22;11067;48.788;9.208;2022-08-18T07:35:06;22.10;99.90
21811;DHT22;11067;48.788;9.208;2022-08-18T07:40:26;21.60;99.90
21811;DHT22;11067;48.788;9.208;2022-08-18T07:43:16;21.60;99.90
21811;DHT22;11067;48.788;9.208;2022-08-18T07:45:45;21.50;99.90
21811;DHT22;11067;48.788;9.208;2022-08-18T07:48:29;21.60;99.90
21811;DHT22;11067;48.788;9.208;2022-08-18T07:51:14;21.70;99.90
21811;DHT22;11067;48.788;9.208;2022-08-18T07:59:28;21.70;99.90
21811;DHT22;11067;48.788;9.208;2022-08-18T08:07:11;21.70;99.90
21811;DHT22;11067;48.788;9.208;2022-08-18T08:12:31;21.60;99.90
21811;DHT22;11067;48.788;9.208;2022-08-18T08:17:52;21.50;99.90
21811;DHT22;11067;48.788;9.208;2022-08-18T08:20:29;21.50;99.90
21811;DHT22;11067;48.788;9.208;2022-08-18T08:31:53;21.60;99.90
21811;DHT22;11067;48.788;9.208;2022-08-18T08:34:28;21.50;99.90
21811;DHT22;11067;48.788;9.208;2022-08-18T08:37:06;21.30;99.90
21811;DHT22;11067;48.788;9.208;2022-08-18T08:39:49;21.40;99.90
21811;DHT22;11067;48.788;9.208;2022-08-18T08:42:25;21.60;99.90
21811;DHT22;11067;48.788;9.208;2022-08-18T08:45:09;21.70;99.90
21811;DHT22;11067;48.788;9.208;2022-08-18T08:50:13;22.00;99.90
21811;DHT22;11067;48.788;9.208;2022-08-18T08:52:57;22.20;99.90
21811;DHT22;11067;48.788;9.208;2022-08-18T08:55:33;22.20;99.90
21811;DHT22;11067;48.788;9.208;2022-08-18T09:00:35;22.70;99.90
21811;DHT22;11067;48.788;9.208;2022-08-18T09:03:07;22.20;99.90
21811;DHT22;11067;48.788;9.208;2022-08-18T09:05:38;22.60;99.90
21811;DHT22;11067;48.788;9.208;2022-08-18T09:16:24;23.10;99.90
21811;DHT22;11067;48.788;9.208;2022-08-18T09:19:03;23.50;99.90
21811;DHT22;11067;48.788;9.208;2022-08-18T09:21:58;23.80;99.90
21811;DHT22;11067;48.788;9.208;2022-08-18T09:24:31;23.40;99.90
21811;DHT22;11067;48.788;9.208;2022-08-18T09:27:15;23.60;99.90
21811;DHT22;11067;48.788;9.208;2022-08-18T09:29:55;23.20;99.90
21811;DHT22;11067;48.788;9.208;2022-08-18T09:35:06;23.30;99.90
21811;DHT22;11067;48.788;9.208;2022-08-18T09:37:54;23.10;99.90
21811;DHT22;11067;48.788;9.208;2022-08-18T09:40:53;23.40;99.90
21811;DHT22;11067;48.788;9.208;2022-08-18T09:51:59;23.80;99.90
21811;DHT22;11067;48.788;9.208;2022-08-18T09:54:28;24.30;99.90
21811;DHT22;11067;48.788;9.208;2022-08-18T10:05:27;24.20;99.90
21811;DHT22;11067;48.788;9.208;2022-08-18T10:11:15;23.80;99.90
21811;DHT22;11067;48.788;9.208;2022-08-18T10:14:03;24.20;99.90
21811;DHT22;11067;48.788;9.208;2022-08-18T10:22:39;24.20;99.90
21811;DHT22;11067;48.788;9.208;2022-08-18T10:25:08;24.30;99.90
21811;DHT22;11067;48.788;9.208;2022-08-18T10:33:09;24.00;99.90
21811;DHT22;11067;48.788;9.208;2022-08-18T10:38:15;24.30;99.90
21811;DHT22;11067;48.788;9.208;2022-08-18T10:40:53;24.10;99.90
21811;DHT22;11067;48.788;9.208;2022-08-18T10:43:36;24.50;99.90
21811;DHT22;11067;48.788;9.208;2022-08-18T10:46:04;24.20;99.90
21811;DHT22;11067;48.788;9.208;2022-08-18T10:48:39;24.50;99.90
21811;DHT22;11067;48.788;9.208;2022-08-18T10:53:49;23.70;99.90
21811;DHT22;11067;48.788;9.208;2022-08-18T10:56:46;24.20;99.90
21811;DHT22;11067;48.788;9.208;2022-08-18T10:59:34;24.70;99.90
21811;DHT22;11067;48.788;9.208;2022-08-18T11:05:04;24.80;99.90
21811;DHT22;11067;48.788;9.208;2022-08-18T11:07:33;25.10;99.90
21811;DHT22;11067;48.788;9.208;2022-08-18T11:10:00;24.60;99.90
21811;DHT22;11067;48.788;9.208;2022-08-18T11:15:25;24.80;99.90
21811;DHT22;11067;48.788;9.208;2022-08-18T11:18:19;24.60;99.90
21811;DHT22;11067;48.788;9.208;2022-08-18T11:21:20;25.00;99.90
21811;DHT22;11067;48.788;9.208;2022-08-18T11:23:39;25.00;99.90
21811;DHT22;11067;48.788;9.208;2022-08-18T11:26:15;25.20;99.90
21811;DHT22;11067;48.788;9.208;2022-08-18T11:28:41;25.30;99.90
21811;DHT22;11067;48.788;9.208;2022-08-18T11:31:07;26.00;99.90
21811;DHT22;11067;48.788;9.208;2022-08-18T11:33:33;26.30;99.90
21811;DHT22;11067;48.788;9.208;2022-08-18T11:36:03;26.20;99.90
21811;DHT22;11067;48.788;9.208;2022-08-18T11:38:29;25.90;99.90
21811;DHT22;11067;48.788;9.208;2022-08-18T11:41:17;25.60;99.90
21811;DHT22;11067;48.788;9.208;2022-08-18T11:43:43;26.10;99.90
21811;DHT22;11067;48.788;9.208;2022-08-18T11:47:07;25.80;99.90
21811;DHT22;11067;48.788;9.208;2022-08-18T11:49:00;25.90;99.90
21811;DHT22;11067;48.788;9.208;2022-08-18T11:52:02;25.90;99.90
21811;DHT22;11067;48.788;9.208;2022-08-18T11:54:44;25.90;99.90
21811;DHT22;11067;48.788;9.208;2022-08-18T11:57:53;25.10;99.90
21811;DHT22;11067;48.788;9.208;2022-08-18T12:03:27;25.20;99.90
21811;DHT22;11067;48.788;9.208;2022-08-18T12:05:55;25.50;99.90
21811;DHT22;11067;48.788;9.208;2022-08-18T12:08:52;25.60;99.90
21811;DHT22;11067;48.788;9.208;2022-08-18T12:11:22;25.60;99.90
21811;DHT22;11067;48.788;9.208;2022-08-18T12:14:49;25.40;99.90
21811;DHT22;11067;48.788;9.208;2022-08-18T12:16:46;25.60;99.90
21811;DHT22;11067;48.788;9.208;2022-08-18T12:19:13;26.40;99.90
21811;DHT22;11067;48.788;9.208;2022-08-18T12:21:39;26.60;99.90
21811;DHT22;11067;48.788;9.208;2022-08-18T12:24:18;26.00;99.90
21811;DHT22;11067;48.788;9.208;2022-08-18T12:26:45;26.20;99.90
21811;DHT22;11067;48.788;9.208;2022-08-18T12:29:11;26.20;99.90
21811;DHT22;11067;48.788;9.208;2022-08-18T12:31:38;25.70;99.90
21811;DHT22;11067;48.788;9.208;2022-08-18T12:34:03;25.90;99.90
21811;DHT22;11067;48.788;9.208;2022-08-18T12:36:29;25.50;99.90
21811;DHT22;11067;48.788;9.208;2022-08-18T12:38:55;25.70;99.90
21811;DHT22;11067;48.788;9.208;2022-08-18T12:41:21;26.40;99.90
21811;DHT22;11067;48.788;9.208;2022-08-18T12:43:47;26.50;99.90
21811;DHT22;11067;48.788;9.208;2022-08-18T12:46:13;26.70;99.90
21811;DHT22;11067;48.788;9.208;2022-08-18T12:48:38;27.00;99.90
21811;DHT22;11067;48.788;9.208;2022-08-18T12:51:05;26.60;99.90
21811;DHT22;11067;48.788;9.208;2022-08-18T12:53:31;26.70;99.90
21811;DHT22;11067;48.788;9.208;2022-08-18T12:55:56;26.60;99.90
21811;DHT22;11067;48.788;9.208;2022-08-18T12:58:22;26.70;99.90
21811;DHT22;11067;48.788;9.208;2022-08-18T13:00:47;26.80;99.90
21811;DHT22;11067;48.788;9.208;2022-08-18T13:03:13;26.70;99.90
21811;DHT22;11067;48.788;9.208;2022-08-18T13:05:39;26.50;99.90
21811;DHT22;11067;48.788;9.208;2022-08-18T13:08:11;26.20;99.90
21811;DHT22;11067;48.788;9.208;2022-08-18T13:10:37;26.30;99.90
21811;DHT22;11067;48.788;9.208;2022-08-18T13:13:03;26.20;99.90
21811;DHT22;11067;48.788;9.208;2022-08-18T13:15:30;26.20;99.90
21811;DHT22;11067;48.788;9.208;2022-08-18T13:17:57;26.00;99.90
21811;DHT22;11067;48.788;9.208;2022-08-18T13:20:23;26.20;99.90
21811;DHT22;11067;48.788;9.208;2022-08-18T13:22:48;26.30;99.90
21811;DHT22;11067;48.788;9.208;2022-08-18T13:25:15;26.50;99.90
21811;DHT22;11067;48.788;9.208;2022-08-18T13:27:41;26.40;99.90
21811;DHT22;11067;48.788;9.208;2022-08-18T13:30:10;26.10;99.90
21811;DHT22;11067;48.788;9.208;2022-08-18T13:32:36;26.30;99.90
21811;DHT22;11067;48.788;9.208;2022-08-18T13:35:03;26.50;99.90
21811;DHT22;11067;48.788;9.208;2022-08-18T13:37:28;26.70;99.90
21811;DHT22;11067;48.788;9.208;2022-08-18T13:39:54;26.70;99.90
21811;DHT22;11067;48.788;9.208;2022-08-18T13:42:20;26.90;99.90
21811;DHT22;11067;48.788;9.208;2022-08-18T13:44:45;27.10;99.90
21811;DHT22;11067;48.788;9.208;2022-08-18T13:47:11;26.80;99.90
21811;DHT22;11067;48.788;9.208;2022-08-18T13:49:37;27.10;99.90
21811;DHT22;11067;48.788;9.208;2022-08-18T13:52:02;26.80;99.90
21811;DHT22;11067;48.788;9.208;2022-08-18T13:54:31;27.00;99.90
21811;DHT22;11067;48.788;9.208;2022-08-18T13:56:58;27.10;99.90
21811;DHT22;11067;48.788;9.208;2022-08-18T13:59:25;26.90;99.90
21811;DHT22;11067;48.788;9.208;2022-08-18T14:02:03;27.10;99.90
21811;DHT22;11067;48.788;9.208;2022-08-18T14:04:30;27.30;99.90
21811;DHT22;11067;48.788;9.208;2022-08-18T14:06:56;27.20;99.90
21811;DHT22;11067;48.788;9.208;2022-08-18T14:09:21;27.20;99.90
21811;DHT22;11067;48.788;9.208;2022-08-18T14:11:47;27.10;99.90
21811;DHT22;11067;48.788;9.208;2022-08-18T14:14:13;27.50;99.90
21811;DHT22;11067;48.788;9.208;2022-08-18T14:16:39;27.60;99.90
21811;DHT22;11067;48.788;9.208;2022-08-18T14:19:05;27.40;99.90
21811;DHT22;11067;48.788;9.208;2022-08-18T14:21:52;27.20;99.90
21811;DHT22;11067;48.788;9.208;2022-08-18T14:24:37;27.20;99.90
21811;DHT22;11067;48.788;9.208;2022-08-18T14:27:27;27.10;99.90
21811;DHT22;11067;48.788;9.208;2022-08-18T14:29:53;27.30;99.90
21811;DHT22;11067;48.788;9.208;2022-08-18T14:32:20;27.80;99.90
21811;DHT22;11067;48.788;9.208;2022-08-18T14:34:47;28.00;99.90
21811;DHT22;11067;48.788;9.208;2022-08-18T14:37:13;27.80;99.90
21811;DHT22;11067;48.788;9.208;2022-08-18T14:39:39;27.70;99.90
21811;DHT22;11067;48.788;9.208;2022-08-18T14:42:04;27.90;99.90
21811;DHT22;11067;48.788;9.208;2022-08-18T14:44:30;28.00;99.90
21811;DHT22;11067;48.788;9.208;2022-08-18T14:46:56;28.10;99.90
21811;DHT22;11067;48.788;9.208;2022-08-18T14:49:23;28.00;99.90
21811;DHT22;11067;48.788;9.208;2022-08-18T14:51:48;27.60;99.90
21811;DHT22;11067;48.788;9.208;2022-08-18T14:54:14;27.40;99.90
21811;DHT22;11067;48.788;9.208;2022-08-18T14:56:40;27.70;99.90
21811;DHT22;11067;48.788;9.208;2022-08-18T14:59:06;27.50;99.90
21811;DHT22;11067;48.788;9.208;2022-08-18T15:01:33;27.90;99.90
21811;DHT22;11067;48.788;9.208;2022-08-18T15:03:59;27.30;99.90
21811;DHT22;11067;48.788;9.208;2022-08-18T15:06:25;27.60;99.90
21811;DHT22;11067;48.788;9.208;2022-08-18T15:08:50;27.70;99.90
21811;DHT22;11067;48.788;9.208;2022-08-18T15:11:16;27.80;99.90
21811;DHT22;11067;48.788;9.208;2022-08-18T15:13:42;27.50;99.90
21811;DHT22;11067;48.788;9.208;2022-08-18T15:16:09;27.50;99.90
21811;DHT22;11067;48.788;9.208;2022-08-18T15:18:41;27.90;99.90
21811;DHT22;11067;48.788;9.208;2022-08-18T15:21:07;27.50;99.90
21811;DHT22;11067;48.788;9.208;2022-08-18T15:23:52;27.10;99.90
21811;DHT22;11067;48.788;9.208;2022-08-18T15:26:35;26.80;99.90
21811;DHT22;11067;48.788;9.208;2022-08-18T15:29:04;27.30;99.90
21811;DHT22;11067;48.788;9.208;2022-08-18T15:31:32;27.20;99.90
21811;DHT22;11067;48.788;9.208;2022-08-18T15:33:58;27.20;99.90
21811;DHT22;11067;48.788;9.208;2022-08-18T15:36:24;27.20;99.90
21811;DHT22;11067;48.788;9.208;2022-08-18T15:38:50;27.20;99.90
21811;DHT22;11067;48.788;9.208;2022-08-18T15:41:29;27.00;99.90
21811;DHT22;11067;48.788;9.208;2022-08-18T15:43:55;27.20;99.90
21811;DHT22;11067;48.788;9.208;2022-08-18T15:46:22;27.00;99.90
21811;DHT22;11067;48.788;9.208;2022-08-18T15:48:47;27.20;99.90
21811;DHT22;11067;48.788;9.208;2022-08-18T15:51:13;27.00;99.90
21811;DHT22;11067;48.788;9.208;2022-08-18T15:53:39;26.90;99.90
21811;DHT22;11067;48.788;9.208;2022-08-18T15:56:05;27.00;99.90
21811;DHT22;11067;48.788;9.208;2022-08-18T15:58:30;27.10;99.90
21811;DHT22;11067;48.788;9.208;2022-08-18T16:00:56;27.20;99.90
21811;DHT22;11067;48.788;9.208;2022-08-18T16:03:21;27.10;99.90
21811;DHT22;11067;48.788;9.208;2022-08-18T16:05:51;27.30;99.90
21811;DHT22;11067;48.788;9.208;2022-08-18T16:08:22;27.40;99.90
21811;DHT22;11067;48.788;9.208;2022-08-18T16:10:48;27.40;99.90
21811;DHT22;11067;48.788;9.208;2022-08-18T16:13:14;26.90;99.90
21811;DHT22;11067;48.788;9.208;2022-08-18T16:15:41;27.00;99.90
21811;DHT22;11067;48.788;9.208;2022-08-18T16:18:08;26.80;99.90
21811;DHT22;11067;48.788;9.208;2022-08-18T16:20:34;26.80;99.90
21811;DHT22;11067;48.788;9.208;2022-08-18T16:23:00;27.20;99.90
21811;DHT22;11067;48.788;9.208;2022-08-18T16:25:26;27.00;99.90
21811;DHT22;11067;48.788;9.208;2022-08-18T16:27:52;27.00;99.90
21811;DHT22;11067;48.788;9.208;2022-08-18T16:30:24;27.10;99.90
21811;DHT22;11067;48.788;9.208;2022-08-18T16:32:51;27.20;99.90
21811;DHT22;11067;48.788;9.208;2022-08-18T16:35:17;27.00;99.90
21811;DHT22;11067;48.788;9.208;2022-08-18T16:37:44;26.70;99.90
21811;DHT22;11067;48.788;9.208;2022-08-18T16:40:12;26.80;99.90
21811;DHT22;11067;48.788;9.208;2022-08-18T16:42:37;26.60;99.90
21811;DHT22;11067;48.788;9.208;2022-08-18T16:45:04;26.80;99.90
21811;DHT22;11067;48.788;9.208;2022-08-18T16:47:31;26.50;99.90
21811;DHT22;11067;48.788;9.208;2022-08-18T16:49:57;26.40;99.90
21811;DHT22;11067;48.788;9.208;2022-08-18T16:52:22;26.30;99.90
21811;DHT22;11067;48.788;9.208;2022-08-18T16:54:49;26.20;99.90
21811;DHT22;11067;48.788;9.208;2022-08-18T16:57:14;26.20;99.90
21811;DHT22;11067;48.788;9.208;2022-08-18T17:00:03;26.10;99.90
21811;DHT22;11067;48.788;9.208;2022-08-18T17:02:47;26.20;99.90
21811;DHT22;11067;48.788;9.208;2022-08-18T17:05:31;25.90;99.90
21811;DHT22;11067;48.788;9.208;2022-08-18T17:07:58;25.60;99.90
21811;DHT22;11067;48.788;9.208;2022-08-18T17:10:25;25.50;99.90
21811;DHT22;11067;48.788;9.208;2022-08-18T17:12:50;25.60;99.90
21811;DHT22;11067;48.788;9.208;2022-08-18T17:15:16;25.60;99.90
21811;DHT22;11067;48.788;9.208;2022-08-18T17:17:41;25.50;99.90
21811;DHT22;11067;48.788;9.208;2022-08-18T17:20:07;25.60;99.90
21811;DHT22;11067;48.788;9.208;2022-08-18T17:22:33;25.50;99.90
21811;DHT22;11067;48.788;9.208;2022-08-18T17:25:00;25.50;99.90
21811;DHT22;11067;48.788;9.208;2022-08-18T17:27:30;25.50;99.90
21811;DHT22;11067;48.788;9.208;2022-08-18T17:30:35;25.40;99.90
21811;DHT22;11067;48.788;9.208;2022-08-18T17:33:15;25.30;99.90
21811;DHT22;11067;48.788;9.208;2022-08-18T17:35:46;25.20;99.90
21811;DHT22;11067;48.788;9.208;2022-08-18T17:38:41;25.10;99.90
21811;DHT22;11067;48.788;9.208;2022-08-18T17:41:10;25.00;99.90
21811;DHT22;11067;48.788;9.208;2022-08-18T17:43:37;25.00;99.90
21811;DHT22;11067;48.788;9.208;2022-08-18T17:46:27;25.10;99.90
21811;DHT22;11067;48.788;9.208;2022-08-18T17:49:01;24.90;99.90
21811;DHT22;11067;48.788;9.208;2022-08-18T17:51:35;24.80;99.90